Terminal Aerodrome Forecast
Issued by NWS

Home | Current Version | Previous Version | Graphics & Text | Print | Product List | Glossary On
Versions: 1 2 3 4 5 6 7 8 9 10 11 12 13 14 15 16 17 18 19 20
701
FTUS43 KFGF 232320
TAFBJI
TAF
KBJI 232320Z 2400/2424 35007KT P6SM OVC009
     FM240300 04006KT 5SM -SHRA OVC008
     FM240600 06005KT 5SM SHRA OVC003=

USA.gov is the U.S. government's official web portal to all federal, state and local government web resources and services.